Time;durP1;ratioP1;P1;durP2;ratioP2;P2;SDS_P1;SDS_P2;PMS_P1;PMS_P2;Temp;Humidity;BMP_temperature;BMP_pressure;BME280_temperature;BME280_humidity;BME280_pressure;Samples;Min_cycle;Max_cycle;Signal;HPM_P1;HPM_P2
2022/06/05 00:13:55;;;;;;;19.02;16.20;;;;;;;15.57;78.30;100626.81;30869202;28;111996;-73
2022/06/05 00:29:21;;;;;;;15.90;14.20;;;;;;;15.35;77.97;100623.25;30868799;28;98012;-71
2022/06/05 00:44:31;;;;;;;15.13;12.83;;;;;;;15.10;77.69;100612.91;30866656;28;96601;-69
2022/06/05 00:59:31;;;;;;;13.20;11.80;;;;;;;14.83;77.22;100607.25;30865157;28;96643;-68
2022/06/05 01:14:56;;;;;;;12.25;11.00;;;;;;;14.74;77.43;100608.38;30864405;28;96735;-71
2022/06/05 01:30:08;;;;;;;12.17;10.83;;;;;;;14.69;76.78;100608.09;30862710;28;97122;-70
2022/06/05 01:45:18;;;;;;;13.20;11.87;;;;;;;14.28;76.45;100614.72;30872506;28;96766;-68
2022/06/05 02:00:21;;;;;;;14.43;12.97;;;;;;;13.91;77.09;100615.63;30863537;28;97354;-68
2022/06/05 02:15:21;;;;;;;14.87;13.37;;;;;;;13.65;77.87;100614.16;30858143;28;96724;-68
2022/06/05 02:30:23;;;;;;;13.73;12.20;;;;;;;13.43;78.37;100602.47;30857382;28;96689;-68
2022/06/05 02:45:30;;;;;;;14.97;13.33;;;;;;;13.34;78.74;100621.22;30856064;28;96780;-71
2022/06/05 03:00:32;;;;;;;16.30;13.50;;;;;;;13.37;78.85;100622.75;30855346;28;96713;-73
2022/06/05 03:15:33;;;;;;;16.23;14.53;;;;;;;13.39;78.97;100628.75;30871236;28;97139;-69
2022/06/05 03:30:37;;;;;;;18.77;15.10;;;;;;;13.43;79.20;100656.00;30873471;28;96721;-71
2022/06/05 03:45:37;;;;;;;16.13;14.40;;;;;;;13.63;79.38;100677.78;30872220;28;96711;-70
2022/06/05 04:00:41;;;;;;;16.30;13.90;;;;;;;13.91;79.27;100675.34;30871233;28;97242;-68
2022/06/05 04:15:41;;;;;;;18.77;16.20;;;;;;;14.38;78.63;100673.44;30867978;28;97132;-68
2022/06/05 04:30:42;;;;;;;17.85;14.57;;;;;;;14.85;78.47;100682.97;30866865;28;96697;-68
2022/06/05 04:45:43;;;;;;;14.70;12.32;;;;;;;15.27;77.41;100691.34;30865561;28;101585;-68
2022/06/05 05:00:43;;;;;;;12.97;11.33;;;;;;;15.84;76.32;100692.38;30861721;28;96571;-68
2022/06/05 05:15:48;;;;;;;12.93;11.32;;;;;;;16.33;74.81;100677.22;30862448;28;96723;-71
2022/06/05 05:30:49;;;;;;;12.40;11.13;;;;;;;16.97;73.10;100679.91;30859875;28;96766;-70
2022/06/05 05:45:49;;;;;;;11.27;7.82;;;;;;;17.65;70.51;100679.09;30859182;28;97146;-72
2022/06/05 06:00:49;;;;;;;7.05;6.35;;;;;;;18.44;68.19;100663.94;30903706;28;97049;-75
2022/06/05 06:15:50;;;;;;;5.43;4.90;;;;;;;19.14;64.39;100652.50;30971289;28;97336;-68
2022/06/05 06:30:50;;;;;;;6.55;4.32;;;;;;;19.81;60.86;100646.69;30968856;28;97443;-72
2022/06/05 06:45:51;;;;;;;7.80;5.30;;;;;;;20.42;57.26;100652.38;30966190;28;97507;-68
2022/06/05 07:00:51;;;;;;;8.95;4.25;;;;;;;20.89;54.91;100641.88;30966308;28;97144;-70
2022/06/05 07:15:52;;;;;;;6.68;4.72;;;;;;;21.85;52.48;100651.97;30963300;28;97166;-68
2022/06/05 07:30:53;;;;;;;6.53;5.40;;;;;;;22.58;49.71;100635.44;30902864;28;97453;-66
2022/06/05 07:45:53;;;;;;;5.87;4.73;;;;;;;23.46;46.93;100627.94;30973843;28;96761;-67
2022/06/05 08:00:53;;;;;;;6.28;4.28;;;;;;;23.98;45.09;100623.34;30986329;28;96657;-68
2022/06/05 08:15:54;;;;;;;;;;;;;;;24.32;43.45;100610.50;30990921;28;96812;-65
2022/06/05 08:30:54;;;;;;;7.37;5.33;;;;;;;24.91;42.12;100616.41;30992236;28;96794;-68
2022/06/05 08:46:25;;;;;;;7.68;5.60;;;;;;;25.64;41.07;100624.22;30988892;28;96788;-73
2022/06/05 09:01:31;;;;;;;5.60;4.90;;;;;;;26.40;39.38;100608.63;30986797;28;97294;-65
2022/06/05 09:16:41;;;;;;;5.83;4.67;;;;;;;27.10;38.25;100595.47;30986096;28;96748;-67
2022/06/05 09:32:01;;;;;;;6.30;4.43;;;;;;;27.87;36.24;100597.41;30983936;28;97750;-67
2022/06/05 09:47:04;;;;;;;4.37;3.53;;;;;;;28.18;34.16;100583.69;30983290;28;96715;-66
2022/06/05 10:02:07;;;;;;;4.80;4.30;;;;;;;28.66;32.17;100570.34;30982105;28;96651;-74
2022/06/05 10:17:31;;;;;;;6.50;4.03;;;;;;;28.78;32.53;100550.00;30979050;28;97552;-66
2022/06/05 10:32:51;;;;;;;5.17;4.20;;;;;;;28.72;31.77;100556.63;30978140;28;96946;-65
2022/06/05 10:48:07;;;;;;;5.03;3.77;;;;;;;29.00;30.87;100547.66;30975757;28;97512;-67
2022/06/05 11:03:28;;;;;;;4.53;4.00;;;;;;;29.47;30.74;100533.56;30976205;28;97150;-66
2022/06/05 11:18:53;;;;;;;5.63;3.67;;;;;;;29.33;30.48;100506.81;30963878;28;98754;-66
2022/06/05 11:34:03;;;;;;;3.90;3.50;;;;;;;29.55;29.73;100486.28;30979577;28;96783;-66
2022/06/05 11:49:20;;;;;;;3.97;3.27;;;;;;;29.53;29.56;100478.34;30984945;28;96737;-66
2022/06/05 12:04:33;;;;;;;4.50;3.37;;;;;;;29.26;28.31;100450.66;30983563;28;96846;-67
2022/06/05 12:19:56;;;;;;;4.00;3.30;;;;;;;28.99;28.33;100433.59;30978697;28;97184;-66
2022/06/05 12:35:12;;;;;;;6.23;3.03;;;;;;;28.87;28.38;100412.03;30980250;28;96965;-68
2022/06/05 12:50:27;;;;;;;4.23;3.57;;;;;;;29.57;27.78;100404.50;30987143;28;97130;-69
2022/06/05 13:05:39;;;;;;;4.70;3.67;;;;;;;28.72;28.08;100364.75;30916622;28;97153;-68
2022/06/05 13:20:41;;;;;;;4.10;3.70;;;;;;;27.86;29.59;100360.38;30859971;28;96871;-68
2022/06/05 13:35:44;;;;;;;4.50;3.60;;;;;;;28.45;29.97;100355.09;30859524;28;96715;-71
2022/06/05 13:51:33;;;;;;;4.47;4.07;;;;;;;28.40;30.65;100327.72;30863261;28;96681;-69
2022/06/05 14:06:33;;;;;;;4.27;3.67;;;;;;;28.07;30.73;100295.38;30870105;28;96645;-70
2022/06/05 14:21:38;;;;;;;4.40;3.95;;;;;;;27.49;31.04;100290.50;30856464;28;97477;-68
2022/06/05 14:36:49;;;;;;;4.77;3.90;;;;;;;27.20;31.70;100266.53;30855314;28;97386;-68
2022/06/05 14:52:23;;;;;;;5.80;3.97;;;;;;;26.67;32.48;100251.34;30854453;28;96719;-69
2022/06/05 15:07:23;;;;;;;5.63;4.40;;;;;;;26.65;32.89;100242.59;30852438;28;96868;-68
2022/06/05 15:23:01;;;;;;;5.15;4.65;;;;;;;26.81;32.74;100220.75;30851289;28;96864;-67
2022/06/05 15:38:39;;;;;;;4.73;4.20;;;;;;;26.83;32.58;100213.09;30851100;28;96749;-67
2022/06/05 15:54:24;;;;;;;4.77;4.27;;;;;;;26.70;32.90;100214.50;30850499;28;96874;-67
2022/06/05 16:09:41;;;;;;;4.47;3.83;;;;;;;26.55;33.56;100206.31;30844877;28;96887;-68
2022/06/05 16:24:50;;;;;;;6.17;4.80;;;;;;;25.95;34.44;100204.97;30864978;28;97384;-71
2022/06/05 16:39:58;;;;;;;4.33;3.87;;;;;;;25.52;35.00;100185.31;30865842;28;96904;-70
2022/06/05 16:55:18;;;;;;;5.27;4.20;;;;;;;25.23;35.80;100163.91;30863351;28;96893;-71
2022/06/05 17:10:33;;;;;;;5.37;4.87;;;;;;;25.36;35.15;100159.91;30861558;28;97534;-68
2022/06/05 17:25:44;;;;;;;5.63;3.93;;;;;;;25.11;35.64;100152.44;30956905;28;96849;-67
2022/06/05 17:40:58;;;;;;;4.43;3.57;;;;;;;24.65;36.21;100144.94;30972414;28;97367;-67
2022/06/05 17:55:59;;;;;;;4.60;4.20;;;;;;;23.97;37.65;100140.94;30965204;28;96845;-68
2022/06/05 18:11:14;;;;;;;;;;;;;;;23.18;39.61;100149.72;30941238;28;96785;-75
2022/06/05 18:26:24;;;;;;;6.63;4.40;;;;;;;22.56;41.12;100152.47;30979042;28;96709;-71
2022/06/05 18:41:27;;;;;;;5.43;4.80;;;;;;;21.98;42.50;100133.69;30976712;28;97350;-70
2022/06/05 18:56:37;;;;;;;5.33;4.83;;;;;;;21.44;43.86;100134.13;30976039;28;97245;-74
2022/06/05 19:11:41;;;;;;;;;;;;;;;20.88;45.28;100142.00;30974020;28;97608;-69
2022/06/05 19:26:42;;;;;;;6.63;5.30;;;;;;;20.48;46.18;100167.13;30973596;28;96792;-73
2022/06/05 19:41:47;;;;;;;6.40;5.47;;;;;;;20.06;47.77;100194.28;30971186;28;96744;-76
2022/06/05 19:56:47;;;;;;;6.30;5.17;;;;;;;19.73;48.80;100217.19;30987316;28;96929;-67
2022/06/05 20:12:02;;;;;;;6.78;5.97;;;;;;;19.36;49.57;100204.59;30988332;28;96696;-67
2022/06/05 20:27:26;;;;;;;6.27;5.23;;;;;;;19.55;49.53;100220.78;30951976;28;97531;-68
2022/06/05 20:42:47;;;;;;;6.47;5.77;;;;;;;19.20;50.10;100233.03;30863212;28;96837;-68
2022/06/05 20:57:54;;;;;;;8.27;5.90;;;;;;;18.85;51.00;100232.78;30855889;28;96956;-70
2022/06/05 21:28:31;;;;;;;7.53;5.83;;;;;;;18.19;53.31;100200.84;30862621;28;97456;-68
2022/06/05 21:43:51;;;;;;;8.10;6.50;;;;;;;17.89;54.64;100181.75;30860855;28;96997;-68
2022/06/05 21:58:52;;;;;;;7.57;5.80;;;;;;;17.64;55.42;100189.81;30860604;28;97040;-68
2022/06/05 22:13:52;;;;;;;9.30;6.82;;;;;;;17.39;56.40;100186.00;30858444;28;96774;-68
2022/06/05 22:28:52;;;;;;;7.88;7.07;;;;;;;16.88;57.49;100195.72;30858243;28;99942;-68
2022/06/05 22:43:55;;;;;;;6.70;6.10;;;;;;;16.57;58.66;100202.63;30857440;28;96740;-68
2022/06/05 22:58:57;;;;;;;8.07;7.20;;;;;;;16.40;59.28;100193.31;30856089;28;97442;-69
2022/06/05 23:13:57;;;;;;;7.57;6.87;;;;;;;16.19;59.97;100184.44;30854746;28;96907;-68
2022/06/05 23:28:59;;;;;;;8.20;7.40;;;;;;;15.95;61.11;100177.00;30867928;28;97634;-68
2022/06/05 23:44:00;;;;;;;7.57;6.77;;;;;;;15.61;61.90;100166.22;30874635;28;97004;-68
2022/06/05 23:59:00;;;;;;;8.98;7.15;;;;;;;15.36;62.47;100168.63;30873081;28;96679;-73
